Time;durP1;ratioP1;P1;durP2;ratioP2;P2;SDS_P1;SDS_P2;PMS_P1;PMS_P2;Temp;Humidity;BMP_temperature;BMP_pressure;BME280_temperature;BME280_humidity;BME280_pressure;Samples;Min_cycle;Max_cycle;Signal;HPM_P1;HPM_P2
2022/01/06 00:00:37;;;;;;;7.45;2.30;;;;;;;5.46;52.42;99035.78;4470246;32;33629;-56
2022/01/06 00:03:05;;;;;;;8.02;3.20;;;;;;;5.69;52.08;99028.50;4464753;32;34043;-56
2022/01/06 00:05:32;;;;;;;;;;;;;;;5.61;52.10;99034.13;4465099;32;34326;-55
2022/01/06 00:08:01;;;;;;;11.18;3.20;;;;;;;5.81;51.76;99025.19;4464563;32;34087;-56
2022/01/06 00:10:30;;;;;;;8.38;2.72;;;;;;;5.61;51.71;99034.13;4465242;32;33966;-55
2022/01/06 00:13:08;;;;;;;5.25;1.87;;;;;;;5.65;52.00;99029.59;4464718;32;33662;-55
2022/01/06 00:15:44;;;;;;;5.72;1.90;;;;;;;5.70;51.43;99028.41;4469470;32;34619;-55
2022/01/06 00:18:23;;;;;;;7.80;2.60;;;;;;;5.76;51.00;99031.63;4464913;32;33728;-56
2022/01/06 00:23:39;;;;;;;5.60;1.87;;;;;;;5.47;52.39;99007.84;4470795;32;33810;-56
2022/01/06 00:26:08;;;;;;;9.23;1.98;;;;;;;5.53;52.30;99015.38;4466215;32;34637;-55
2022/01/06 00:28:36;;;;;;;5.45;1.85;;;;;;;5.59;52.16;99019.44;4480034;32;33679;-55
2022/01/06 00:31:04;;;;;;;5.82;2.28;;;;;;;5.46;52.79;99024.47;4480388;32;33092;-55
2022/01/06 00:33:32;;;;;;;;;;;;;;;5.47;52.93;99021.78;4480769;32;34751;-55
2022/01/06 00:36:00;;;;;;;6.03;2.10;;;;;;;5.40;52.75;99016.94;4474468;32;35253;-56
2022/01/06 00:38:27;;;;;;;9.18;2.17;;;;;;;5.46;52.96;99001.75;4464291;32;35498;-56
2022/01/06 00:40:56;;;;;;;6.30;1.85;;;;;;;5.65;52.32;98996.38;4468864;32;33471;-55
2022/01/06 00:43:24;;;;;;;7.30;2.30;;;;;;;5.60;52.71;99001.00;4464672;32;34008;-55
2022/01/06 00:45:51;;;;;;;6.57;2.10;;;;;;;5.55;52.98;98989.94;4467671;32;34379;-56
2022/01/06 00:48:19;;;;;;;9.45;2.65;;;;;;;5.53;52.88;98982.16;4480268;32;33894;-55
2022/01/06 00:50:46;;;;;;;8.18;2.35;;;;;;;5.60;52.57;98972.19;4473616;32;33460;-56
2022/01/06 00:53:13;;;;;;;5.87;2.40;;;;;;;5.49;53.23;98964.09;4466142;32;33640;-56
2022/01/06 00:55:41;;;;;;;6.87;2.47;;;;;;;5.46;53.24;98956.41;4476645;32;34800;-55
2022/01/06 00:58:09;;;;;;;9.05;2.70;;;;;;;5.71;52.41;98956.75;4480294;32;33876;-55
2022/01/06 01:00:38;;;;;;;8.00;2.85;;;;;;;5.33;52.91;98959.69;4478078;32;33464;-55
2022/01/06 01:03:13;;;;;;;9.43;2.65;;;;;;;5.43;53.12;98964.41;4464397;32;34297;-55
2022/01/06 01:05:42;;;;;;;7.37;2.62;;;;;;;5.50;53.04;98944.81;4467941;32;34563;-55
2022/01/06 01:08:10;;;;;;;7.35;2.65;;;;;;;5.63;52.65;98943.22;4477059;32;34533;-55
2022/01/06 01:10:38;;;;;;;6.87;2.58;;;;;;;5.37;53.38;98946.41;4467251;32;33438;-56
2022/01/06 01:13:10;;;;;;;;;;;;;;;5.29;53.63;98949.44;4471703;32;34367;-55
2022/01/06 01:15:52;;;;;;;5.43;2.35;;;;;;;5.38;53.76;98954.19;4465208;32;34325;-55
2022/01/06 01:18:20;;;;;;;7.68;2.70;;;;;;;5.12;54.17;98963.44;4464143;32;33692;-56
2022/01/06 01:20:49;;;;;;;7.87;2.60;;;;;;;4.97;54.55;98969.47;4466938;32;33162;-55
2022/01/06 01:23:18;;;;;;;6.30;2.50;;;;;;;5.25;54.08;98968.84;4475837;32;33556;-55
2022/01/06 01:25:45;;;;;;;7.25;2.33;;;;;;;4.86;55.54;98957.78;4479313;32;35217;-55
2022/01/06 01:28:15;;;;;;;;;;;;;;;5.28;54.02;98961.69;4467407;32;32403;-56
2022/01/06 01:33:51;;;;;;;6.75;2.00;;;;;;;5.50;53.25;98984.94;4433063;32;33581;-55
2022/01/06 01:36:19;;;;;;;5.90;2.17;;;;;;;5.41;53.44;98990.69;4434691;32;33530;-56
2022/01/06 01:38:47;;;;;;;5.60;1.95;;;;;;;5.44;53.53;98994.91;4448320;32;34708;-55
2022/01/06 01:41:15;;;;;;;6.75;1.90;;;;;;;5.39;53.61;98999.53;4464053;32;33353;-55
2022/01/06 01:43:46;;;;;;;7.07;2.00;;;;;;;5.27;54.32;98991.44;4463806;32;33604;-55
2022/01/06 01:46:16;;;;;;;6.37;1.87;;;;;;;5.62;53.38;98983.47;4468487;32;34851;-55
2022/01/06 01:48:59;;;;;;;5.57;1.73;;;;;;;5.45;53.65;98971.28;4463845;32;33704;-55
2022/01/06 01:51:26;;;;;;;5.50;2.37;;;;;;;5.60;53.46;98969.56;4476279;32;33469;-55
2022/01/06 01:53:54;;;;;;;6.55;1.90;;;;;;;5.17;54.25;98964.03;4478064;32;33317;-57
2022/01/06 01:56:21;;;;;;;5.55;1.92;;;;;;;5.36;53.94;98953.44;4471239;32;34478;-55
2022/01/06 01:58:48;;;;;;;7.30;2.10;;;;;;;5.19;54.49;98964.78;4481896;32;33831;-55
2022/01/06 02:01:16;;;;;;;;;;;;;;;5.63;53.54;98969.41;4475257;32;32832;-56
2022/01/06 02:03:44;;;;;;;5.72;2.20;;;;;;;5.36;54.50;98970.91;4465919;32;34213;-55
2022/01/06 02:06:11;;;;;;;4.80;2.08;;;;;;;5.44;53.86;98971.34;4472996;32;34537;-55
2022/01/06 02:08:39;;;;;;;6.50;2.10;;;;;;;5.40;53.63;98985.53;4472593;32;33907;-55
2022/01/06 02:11:06;;;;;;;4.87;1.90;;;;;;;5.44;54.04;98989.69;4466399;32;33499;-56
2022/01/06 02:13:44;;;;;;;5.47;2.20;;;;;;;5.38;54.30;98993.47;4472392;32;33559;-56
2022/01/06 02:16:12;;;;;;;;;;;;;;;5.38;54.34;98996.09;4471265;32;34067;-55
2022/01/06 02:18:39;;;;;;;7.78;2.60;;;;;;;5.47;54.26;98994.75;4476729;32;34980;-55
2022/01/06 02:21:06;;;;;;;6.62;2.20;;;;;;;5.37;54.74;99001.38;4477358;32;33446;-56
2022/01/06 02:23:34;;;;;;;5.85;2.05;;;;;;;5.43;54.64;98998.44;4465897;32;34666;-55
2022/01/06 02:26:01;;;;;;;5.80;2.12;;;;;;;5.66;53.50;98990.22;4476520;32;34288;-55
2022/01/06 02:28:29;;;;;;;5.68;1.87;;;;;;;5.77;53.51;98978.31;4474690;32;33760;-56
2022/01/06 02:30:58;;;;;;;6.75;1.90;;;;;;;5.66;53.50;98961.41;4465607;32;33781;-56
2022/01/06 02:33:25;;;;;;;7.62;2.20;;;;;;;5.78;53.29;98951.16;4465783;32;33604;-55
2022/01/06 02:35:54;;;;;;;5.62;2.15;;;;;;;5.58;53.34;98936.56;4472089;32;34198;-55
2022/01/06 02:38:22;;;;;;;6.53;2.15;;;;;;;5.49;53.57;98945.78;4478916;32;35485;-56
2022/01/06 02:40:50;;;;;;;5.85;2.05;;;;;;;5.64;53.33;98946.69;4469600;32;33663;-56
2022/01/06 02:43:18;;;;;;;6.97;2.40;;;;;;;5.32;54.25;98939.66;4481052;32;33538;-56
2022/01/06 02:45:46;;;;;;;5.62;2.00;;;;;;;5.37;53.79;98941.19;4476828;32;35202;-55
2022/01/06 02:48:14;;;;;;;5.07;2.05;;;;;;;5.18;54.60;98941.34;4465344;32;34847;-55
2022/01/06 02:50:49;;;;;;;7.37;2.08;;;;;;;5.59;53.90;98952.19;4474831;32;33945;-56
2022/01/06 02:53:18;;;;;;;7.75;2.00;;;;;;;5.33;54.57;98975.38;4466137;32;34252;-55
2022/01/06 02:55:51;;;;;;;7.37;2.22;;;;;;;5.51;54.26;98985.81;4479868;32;34589;-55
2022/01/06 02:58:38;;;;;;;5.97;2.15;;;;;;;5.29;55.51;98989.56;4465782;32;34824;-55
2022/01/06 03:01:05;;;;;;;7.62;2.30;;;;;;;5.39;54.54;99008.25;4464363;32;34012;-56
2022/01/06 03:03:33;;;;;;;6.07;2.33;;;;;;;5.24;55.07;99009.06;4465458;32;33791;-55
2022/01/06 03:06:01;;;;;;;6.22;2.22;;;;;;;5.35;54.90;99013.72;4469990;32;34178;-56
2022/01/06 03:08:29;;;;;;;6.45;1.83;;;;;;;5.33;55.02;99026.88;4479679;32;34360;-55
2022/01/06 03:10:57;;;;;;;6.78;1.95;;;;;;;5.63;54.19;99034.91;4467284;32;33972;-55
2022/01/06 03:13:25;;;;;;;7.68;2.47;;;;;;;5.51;54.63;99025.09;4465188;32;33982;-55
2022/01/06 03:15:52;;;;;;;7.28;2.20;;;;;;;5.27;55.00;99035.06;4469907;32;34468;-56
2022/01/06 03:18:20;;;;;;;7.15;2.22;;;;;;;5.18;55.44;99039.03;4474379;32;35098;-55
2022/01/06 03:20:49;;;;;;;6.07;2.45;;;;;;;5.24;55.58;99035.25;4475867;32;33597;-56
2022/01/06 03:23:16;;;;;;;8.10;2.42;;;;;;;5.02;56.13;99038.09;4465292;32;33911;-55
2022/01/06 03:25:44;;;;;;;6.05;2.45;;;;;;;5.36;55.26;99044.22;4469048;32;33732;-56
2022/01/06 03:28:11;;;;;;;8.13;2.50;;;;;;;5.24;55.44;99033.47;4474960;32;34678;-56
2022/01/06 03:30:39;;;;;;;4.82;2.10;;;;;;;5.33;54.90;99033.00;4468177;32;33870;-55
2022/01/06 03:33:06;;;;;;;9.65;2.40;;;;;;;5.55;54.58;99031.00;4481209;32;33984;-55
2022/01/06 03:35:34;;;;;;;5.87;2.00;;;;;;;5.62;54.15;99035.84;4479355;32;35342;-55
2022/01/06 03:38:01;;;;;;;6.03;2.17;;;;;;;5.31;55.04;99036.59;4479532;32;33699;-56
2022/01/06 03:40:29;;;;;;;8.27;2.53;;;;;;;5.16;55.73;99033.03;4480917;32;33970;-55
2022/01/06 03:42:56;;;;;;;7.07;2.45;;;;;;;4.99;55.98;99038.28;4480920;32;34230;-55
2022/01/06 03:45:24;;;;;;;6.82;2.47;;;;;;;5.04;55.45;99039.72;4478515;32;34184;-55
2022/01/06 03:47:51;;;;;;;5.93;2.50;;;;;;;5.03;55.44;99043.25;4477624;32;33845;-55
2022/01/06 03:50:19;;;;;;;6.18;2.60;;;;;;;5.19;55.02;99051.16;4475768;32;33116;-55
2022/01/06 03:52:46;;;;;;;7.22;2.30;;;;;;;4.89;55.80;99053.59;4470251;32;34453;-55
2022/01/06 03:55:16;;;;;;;8.05;2.90;;;;;;;5.33;54.51;99060.91;4466056;32;34067;-55
2022/01/06 03:57:44;;;;;;;8.68;2.90;;;;;;;5.24;54.66;99058.78;4477944;32;34058;-56
2022/01/06 04:00:14;;;;;;;6.28;2.37;;;;;;;5.18;55.01;99069.59;4479290;32;34416;-55
2022/01/06 04:02:43;;;;;;;7.43;2.83;;;;;;;5.08;55.49;99062.19;4479026;32;33323;-56
2022/01/06 04:05:11;;;;;;;8.57;2.53;;;;;;;5.01;55.81;99054.75;4479914;32;34974;-57
2022/01/06 04:07:39;;;;;;;10.63;3.20;;;;;;;5.01;55.71;99047.72;4480983;32;34310;-55
2022/01/06 04:10:08;;;;;;;8.35;3.05;;;;;;;5.08;55.41;99056.13;4475154;32;33119;-55
2022/01/06 04:12:37;;;;;;;8.02;2.67;;;;;;;5.13;55.03;99060.16;4465307;32;33474;-55
2022/01/06 04:15:11;;;;;;;8.20;2.80;;;;;;;5.53;54.01;99059.91;4465606;32;34202;-55
2022/01/06 04:17:40;;;;;;;8.73;2.70;;;;;;;5.32;54.44;99061.84;4480186;32;34208;-55
2022/01/06 04:20:09;;;;;;;7.35;2.45;;;;;;;5.26;54.66;99060.41;4472035;32;33637;-55
2022/01/06 04:22:37;;;;;;;6.80;2.30;;;;;;;5.42;54.42;99057.00;4479256;32;33461;-55
2022/01/06 04:25:05;;;;;;;;;;;;;;;5.24;55.04;99059.62;4476786;32;34096;-55
2022/01/06 04:27:32;;;;;;;6.55;2.60;;;;;;;5.57;54.22;99063.19;4464716;32;34729;-55
2022/01/06 04:30:00;;;;;;;6.80;2.58;;;;;;;5.61;53.70;99062.13;4465638;32;32717;-56
2022/01/06 04:32:27;;;;;;;6.90;2.25;;;;;;;5.44;54.24;99063.00;4479003;32;33654;-55
2022/01/06 04:34:55;;;;;;;7.15;2.00;;;;;;;5.30;55.41;99068.94;4477250;32;34291;-55
2022/01/06 04:37:22;;;;;;;4.95;2.20;;;;;;;5.50;54.38;99066.13;4467773;32;34507;-55
2022/01/06 04:39:50;;;;;;;;;;;;;;;5.37;55.01;99067.72;4480648;32;33426;-55
2022/01/06 04:42:17;;;;;;;7.87;2.40;;;;;;;5.36;54.68;99080.88;4480581;32;33805;-56
2022/01/06 04:44:44;;;;;;;8.40;2.47;;;;;;;5.40;55.18;99082.41;4479503;32;34056;-55
2022/01/06 04:47:12;;;;;;;6.35;2.35;;;;;;;5.59;54.39;99084.91;4467543;32;33821;-55
2022/01/06 04:49:39;;;;;;;6.35;2.08;;;;;;;5.65;54.67;99095.91;4465368;32;33031;-56
2022/01/06 04:52:08;;;;;;;6.82;2.17;;;;;;;5.80;53.44;99098.66;4463988;32;34130;-55
2022/01/06 04:54:35;;;;;;;8.50;2.53;;;;;;;5.55;53.93;99105.19;4464201;32;33550;-56
2022/01/06 04:57:03;;;;;;;;;;;;;;;5.63;53.28;99116.09;4464615;32;34481;-55
2022/01/06 04:59:30;;;;;;;6.60;2.10;;;;;;;5.59;53.39;99109.34;4465130;32;33040;-55
2022/01/06 05:01:58;;;;;;;7.20;2.72;;;;;;;5.36;54.44;99120.16;4463473;32;34207;-56
2022/01/06 05:04:26;;;;;;;7.30;2.45;;;;;;;5.56;53.67;99129.59;4450217;32;34105;-55
2022/01/06 05:06:53;;;;;;;6.07;1.73;;;;;;;5.57;53.96;99126.91;4464435;32;34453;-56
2022/01/06 05:09:21;;;;;;;6.68;2.08;;;;;;;5.57;53.97;99126.06;4464218;32;33197;-55
2022/01/06 05:11:48;;;;;;;7.57;1.62;;;;;;;5.68;53.88;99129.81;4463925;32;35289;-55
2022/01/06 05:14:15;;;;;;;4.80;1.90;;;;;;;5.50;54.10;99136.00;4464316;32;35291;-55
2022/01/06 05:16:43;;;;;;;;;;;;;;;5.59;53.77;99140.75;4464830;32;33630;-55
2022/01/06 05:19:10;;;;;;;6.57;2.37;;;;;;;5.58;53.64;99138.22;4464105;32;33288;-55
2022/01/06 05:21:38;;;;;;;6.18;1.95;;;;;;;5.69;53.40;99141.13;4463847;32;33493;-56
2022/01/06 05:24:12;;;;;;;6.82;2.17;;;;;;;5.54;53.77;99142.75;4464680;32;34947;-55
2022/01/06 05:26:40;;;;;;;7.78;2.17;;;;;;;5.58;53.81;99159.16;4465783;32;34159;-55
2022/01/06 05:29:09;;;;;;;7.85;2.22;;;;;;;5.61;53.19;99154.63;4452167;32;33643;-56
2022/01/06 05:31:37;;;;;;;7.30;2.03;;;;;;;5.66;53.03;99147.37;4473619;32;34173;-56
2022/01/06 05:34:05;;;;;;;6.68;1.90;;;;;;;5.63;53.69;99147.53;4481379;32;35391;-56
2022/01/06 05:36:38;;;;;;;5.25;2.10;;;;;;;5.65;53.23;99152.69;4481669;32;33832;-56
2022/01/06 05:39:05;;;;;;;9.93;4.07;;;;;;;5.75;52.71;99158.31;4481719;32;34234;-55
2022/01/06 05:41:33;;;;;;;7.28;2.55;;;;;;;5.89;52.89;99166.28;4468592;32;33641;-55
2022/01/06 05:44:00;;;;;;;8.48;2.50;;;;;;;5.73;52.93;99153.13;4470149;32;34200;-56
2022/01/06 05:46:28;;;;;;;6.20;2.22;;;;;;;5.87;52.90;99155.03;4468778;32;33769;-55
2022/01/06 05:48:56;;;;;;;7.85;2.30;;;;;;;5.43;53.72;99151.19;4468132;32;33844;-56
2022/01/06 05:51:23;;;;;;;8.13;2.47;;;;;;;5.47;54.38;99157.94;4476626;32;34169;-56
2022/01/06 05:53:53;;;;;;;9.65;3.03;;;;;;;5.38;54.89;99157.56;4467267;32;34202;-56
2022/01/06 05:56:21;;;;;;;7.10;2.90;;;;;;;5.57;54.14;99163.56;4466944;32;33926;-55
2022/01/06 05:58:48;;;;;;;6.40;2.40;;;;;;;5.52;54.70;99157.69;4465816;32;33098;-55
2022/01/06 06:01:16;;;;;;;7.15;3.17;;;;;;;5.79;53.90;99154.59;4465724;32;34290;-55
2022/01/06 06:03:44;;;;;;;8.23;2.80;;;;;;;5.67;54.27;99156.91;4466553;32;34936;-55
2022/01/06 06:06:11;;;;;;;6.85;2.47;;;;;;;5.64;54.49;99161.47;4465934;32;33783;-56
2022/01/06 06:08:38;;;;;;;8.27;3.00;;;;;;;5.72;54.32;99161.94;4466978;32;33666;-55
2022/01/06 06:11:07;;;;;;;7.10;2.90;;;;;;;5.46;55.21;99161.47;4465739;32;34417;-56
2022/01/06 06:13:34;;;;;;;;;;;;;;;5.61;54.99;99164.25;4466918;32;35789;-56
2022/01/06 06:16:01;;;;;;;8.80;3.17;;;;;;;5.64;54.70;99164.97;4465756;32;34692;-55
2022/01/06 06:18:29;;;;;;;8.55;3.30;;;;;;;5.65;54.83;99166.62;4465758;32;33242;-56
2022/01/06 06:20:56;;;;;;;8.23;3.00;;;;;;;5.57;54.96;99166.19;4466641;32;35056;-55
2022/01/06 06:23:23;;;;;;;9.20;3.17;;;;;;;5.42;55.59;99164.34;4466217;32;34494;-55
2022/01/06 06:25:51;;;;;;;7.85;3.50;;;;;;;5.42;55.75;99165.19;4465970;32;34148;-56
2022/01/06 06:28:18;;;;;;;7.03;2.97;;;;;;;5.17;56.41;99162.94;4465512;32;33225;-55
2022/01/06 06:30:46;;;;;;;6.95;3.15;;;;;;;5.26;56.39;99172.13;4475764;32;33580;-55
2022/01/06 06:33:14;;;;;;;9.02;3.00;;;;;;;5.44;55.87;99171.19;4479752;32;35408;-56
2022/01/06 06:35:41;;;;;;;7.12;2.90;;;;;;;5.29;56.48;99191.16;4478814;32;34169;-55
2022/01/06 06:38:08;;;;;;;10.45;3.05;;;;;;;5.65;60.25;99192.81;4481393;32;32999;-56
2022/01/06 06:40:36;;;;;;;6.28;2.50;;;;;;;5.67;55.67;99192.75;4481200;32;33639;-55
2022/01/06 06:43:03;;;;;;;8.88;2.87;;;;;;;5.48;55.97;99205.94;4481554;32;34928;-55
2022/01/06 06:45:31;;;;;;;9.00;3.12;;;;;;;5.48;55.66;99201.53;4481374;32;33681;-55
2022/01/06 06:47:59;;;;;;;8.23;3.22;;;;;;;5.37;56.11;99205.59;4481285;32;33741;-55
2022/01/06 06:50:26;;;;;;;;;;;;;;;5.43;56.01;99208.78;4481487;32;34560;-56
2022/01/06 06:52:53;;;;;;;11.15;3.58;;;;;;;5.37;56.12;99211.72;4481314;32;34059;-55
2022/01/06 06:55:21;;;;;;;;;;;;;;;5.36;56.15;99219.62;4481621;32;34676;-55
2022/01/06 06:57:48;;;;;;;11.18;4.28;;;;;;;5.58;55.79;99222.87;4481302;32;33164;-56
2022/01/06 07:00:16;;;;;;;10.05;3.87;;;;;;;5.55;55.65;99228.28;4481402;32;33724;-56
2022/01/06 07:02:44;;;;;;;8.48;3.55;;;;;;;5.78;55.02;99234.97;4480905;32;34596;-55
2022/01/06 07:05:12;;;;;;;7.87;3.15;;;;;;;5.36;55.85;99249.28;4481188;32;33955;-55
2022/01/06 07:07:39;;;;;;;10.45;4.03;;;;;;;5.40;56.23;99248.22;4481103;32;34249;-55
2022/01/06 07:10:07;;;;;;;11.23;4.18;;;;;;;5.37;56.59;99251.00;4481093;32;34344;-56
2022/01/06 07:12:39;;;;;;;11.25;3.92;;;;;;;5.58;56.15;99253.44;4481172;32;34153;-55
2022/01/06 07:15:09;;;;;;;10.68;3.83;;;;;;;5.61;55.88;99250.69;4480912;32;33873;-56
2022/01/06 07:17:37;;;;;;;11.75;4.30;;;;;;;5.51;56.57;99251.16;4481359;32;33117;-56
2022/01/06 07:20:05;;;;;;;9.95;4.20;;;;;;;5.40;56.75;99260.47;4480856;32;34294;-55
2022/01/06 07:22:33;;;;;;;10.68;4.80;;;;;;;5.61;56.68;99264.63;4477672;32;34182;-56
2022/01/06 07:25:03;;;;;;;11.32;3.95;;;;;;;5.44;56.63;99275.94;4471520;32;34330;-56
2022/01/06 07:27:31;;;;;;;7.43;3.22;;;;;;;5.77;55.83;99266.50;4479779;32;33145;-56
2022/01/06 07:29:58;;;;;;;10.13;3.80;;;;;;;5.87;55.22;99283.44;4481182;32;33385;-55
2022/01/06 07:32:26;;;;;;;9.55;3.72;;;;;;;5.55;56.29;99285.06;4468671;32;34268;-56
2022/01/06 07:34:56;;;;;;;9.70;3.90;;;;;;;5.50;56.33;99282.66;4471254;32;34264;-55
2022/01/06 07:37:24;;;;;;;;;;;;;;;5.40;57.01;99278.78;4478248;32;33169;-55
2022/01/06 07:39:51;;;;;;;8.95;3.72;;;;;;;5.71;56.30;99284.19;4479522;32;35153;-55
2022/01/06 07:42:18;;;;;;;8.32;3.35;;;;;;;5.49;56.68;99287.03;4477924;32;34132;-56
2022/01/06 07:44:49;;;;;;;8.88;3.17;;;;;;;5.73;56.17;99287.59;4479578;32;34107;-56
2022/01/06 07:47:18;;;;;;;10.13;3.30;;;;;;;5.53;56.61;99299.06;4480510;32;34734;-55
2022/01/06 07:49:45;;;;;;;8.95;3.12;;;;;;;5.61;56.41;99310.94;4480738;32;35216;-56
2022/01/06 07:52:13;;;;;;;8.70;2.95;;;;;;;5.49;57.20;99310.59;4479153;32;34427;-55
2022/01/06 07:54:42;;;;;;;8.02;2.75;;;;;;;5.63;56.85;99315.16;4487554;31;32499;-55
2022/01/06 07:57:09;;;;;;;7.18;2.58;;;;;;;5.68;56.53;99321.03;4471230;32;32929;-56
2022/01/06 07:59:37;;;;;;;7.68;3.10;;;;;;;5.66;56.41;99322.91;4474807;32;33545;-55
2022/01/06 08:02:04;;;;;;;;;;;;;;;5.85;55.88;99325.44;4486924;31;33270;-55
2022/01/06 08:04:33;;;;;;;9.10;3.15;;;;;;;5.95;55.68;99325.84;4480057;32;35159;-56
2022/01/06 08:07:01;;;;;;;10.50;2.90;;;;;;;5.91;55.95;99337.37;4480412;32;33126;-56
2022/01/06 08:09:28;;;;;;;11.27;3.17;;;;;;;5.82;56.16;99336.09;4480845;32;34596;-56
2022/01/06 08:11:56;;;;;;;8.10;2.78;;;;;;;6.01;55.70;99340.41;4480373;32;33270;-56
2022/01/06 08:14:23;;;;;;;10.63;4.00;;;;;;;5.83;56.12;99343.00;4472930;32;34114;-55
2022/01/06 08:16:51;;;;;;;14.85;5.80;;;;;;;5.95;55.65;99348.56;4465596;32;33293;-56
2022/01/06 08:19:18;;;;;;;13.52;3.62;;;;;;;5.84;56.48;99341.25;4467695;32;33768;-56
2022/01/06 08:21:46;;;;;;;9.10;3.50;;;;;;;5.72;56.42;99348.78;4472706;32;34192;-56
2022/01/06 08:24:13;;;;;;;17.27;7.55;;;;;;;6.02;55.52;99348.22;4480512;31;34504;-56
2022/01/06 08:26:41;;;;;;;12.90;6.12;;;;;;;6.13;55.43;99360.78;4471415;32;33057;-56
2022/01/06 08:29:08;;;;;;;9.50;4.28;;;;;;;6.28;55.05;99359.16;4476502;32;34498;-55
2022/01/06 08:31:35;;;;;;;9.63;3.53;;;;;;;6.45;60.97;99361.75;4471351;32;196326;-56
2022/01/06 08:34:03;;;;;;;9.68;3.53;;;;;;;6.71;59.60;99372.69;4471892;31;35263;-55
2022/01/06 08:36:30;;;;;;;8.93;3.62;;;;;;;6.35;54.91;99376.28;4492359;31;33398;-56
2022/01/06 08:38:58;;;;;;;11.00;4.00;;;;;;;6.19;55.33;99389.31;4479013;32;34002;-56
2022/01/06 08:41:25;;;;;;;10.30;4.22;;;;;;;6.48;54.76;99393.09;4480209;32;34653;-55
2022/01/06 08:43:53;;;;;;;13.52;3.50;;;;;;;6.27;55.43;99395.03;4479310;32;34467;-56
2022/01/06 08:46:21;;;;;;;7.68;2.70;;;;;;;6.48;55.11;99398.34;4475248;32;33167;-56
2022/01/06 08:48:50;;;;;;;6.15;2.78;;;;;;;6.46;54.25;99400.19;4479221;32;34547;-56
2022/01/06 08:51:18;;;;;;;9.80;3.17;;;;;;;6.54;54.23;99406.81;4480196;32;35119;-56
2022/01/06 08:53:46;;;;;;;7.07;2.87;;;;;;;6.48;53.89;99406.22;4465717;32;34412;-56
2022/01/06 08:56:13;;;;;;;9.30;3.50;;;;;;;6.59;53.89;99412.66;4465505;32;33236;-56
2022/01/06 08:58:40;;;;;;;8.15;2.80;;;;;;;6.56;54.12;99408.44;4464027;32;34611;-56
2022/01/06 09:01:08;;;;;;;7.53;2.58;;;;;;;6.53;53.86;99408.59;4465121;32;34190;-55
2022/01/06 09:03:36;;;;;;;9.00;2.60;;;;;;;6.50;54.23;99406.13;4465473;32;34220;-56
2022/01/06 09:06:03;;;;;;;8.43;2.62;;;;;;;6.85;53.15;99412.16;4474309;32;33162;-55
2022/01/06 09:08:31;;;;;;;5.82;2.37;;;;;;;6.76;53.52;99406.56;4473203;32;34679;-56
2022/01/06 09:10:58;;;;;;;8.20;2.80;;;;;;;6.67;53.92;99415.78;4474929;32;34926;-56
2022/01/06 09:13:27;;;;;;;6.47;2.30;;;;;;;6.79;53.54;99417.75;4463961;32;33741;-56
2022/01/06 09:15:55;;;;;;;5.80;2.17;;;;;;;6.77;53.57;99422.22;4469177;32;34296;-55
2022/01/06 09:18:23;;;;;;;7.43;2.60;;;;;;;6.76;53.26;99411.81;4479768;32;33544;-55
2022/01/06 09:20:50;;;;;;;9.35;2.75;;;;;;;7.08;52.47;99412.75;4474617;32;35606;-56
2022/01/06 09:23:18;;;;;;;7.68;2.28;;;;;;;6.79;53.54;99412.50;4478560;32;34037;-56
2022/01/06 09:25:45;;;;;;;8.60;2.65;;;;;;;6.59;53.87;99416.16;4457391;32;33361;-56
2022/01/06 09:28:13;;;;;;;5.72;2.37;;;;;;;6.87;53.04;99414.72;4477394;31;33982;-56
2022/01/06 09:30:40;;;;;;;5.80;2.40;;;;;;;6.75;53.28;99428.50;4495302;31;34246;-56
2022/01/06 09:33:08;;;;;;;;;;;;;;;6.71;53.32;99417.31;4482385;31;33964;-56
2022/01/06 09:35:35;;;;;;;7.95;2.80;;;;;;;6.82;52.79;99422.81;4477600;32;33984;-55
2022/01/06 09:38:03;;;;;;;6.78;2.53;;;;;;;6.72;53.22;99424.22;4479258;32;33439;-55
2022/01/06 09:40:31;;;;;;;9.68;2.85;;;;;;;6.61;53.80;99429.19;4477672;32;34256;-56
2022/01/06 09:42:58;;;;;;;8.57;3.03;;;;;;;6.78;53.38;99428.31;4473508;31;33552;-56
2022/01/06 09:45:27;;;;;;;6.40;2.40;;;;;;;6.97;52.76;99425.59;4457615;32;33103;-55
2022/01/06 09:47:56;;;;;;;8.75;2.65;;;;;;;6.95;52.95;99432.69;4464348;32;34619;-55
2022/01/06 09:50:24;;;;;;;7.22;2.40;;;;;;;6.77;53.42;99437.13;4449086;32;34455;-56
2022/01/06 09:52:52;;;;;;;8.93;2.65;;;;;;;6.80;53.68;99434.34;4474204;32;34217;-56
2022/01/06 09:55:21;;;;;;;9.15;2.90;;;;;;;6.65;53.92;99443.84;4471725;32;34017;-56
2022/01/06 09:57:56;;;;;;;6.60;2.03;;;;;;;7.03;53.01;99433.97;4462760;32;34627;-56
2022/01/06 10:00:25;;;;;;;10.13;2.60;;;;;;;6.74;53.70;99438.13;4462132;32;34406;-56
2022/01/06 10:02:58;;;;;;;6.15;2.12;;;;;;;6.86;53.16;99428.75;4489255;31;33072;-55
2022/01/06 10:05:26;;;;;;;8.70;2.62;;;;;;;6.88;53.44;99433.03;4477718;31;34260;-56
2022/01/06 10:07:54;;;;;;;;;;;;;;;6.93;53.58;99450.31;4473146;32;33578;-56
2022/01/06 10:10:25;;;;;;;6.30;2.40;;;;;;;7.12;52.49;99453.66;4480405;32;34587;-58
2022/01/06 10:12:57;;;;;;;7.75;2.85;;;;;;;7.03;52.65;99446.25;4480841;32;34761;-58
2022/01/06 10:15:27;;;;;;;7.75;2.00;;;;;;;7.08;52.59;99449.50;4476223;32;33291;-58
2022/01/06 10:17:55;;;;;;;6.25;2.30;;;;;;;7.33;52.09;99454.31;4479949;32;34393;-58
2022/01/06 10:20:26;;;;;;;13.10;4.82;;;;;;;7.30;52.23;99447.41;4465674;32;34488;-58
2022/01/06 10:22:58;;;;;;;6.85;2.45;;;;;;;7.42;52.25;99461.66;4465566;32;33689;-58
2022/01/06 10:25:30;;;;;;;7.80;2.60;;;;;;;7.59;50.92;99458.13;4479934;32;33528;-58
2022/01/06 10:28:23;;;;;;;5.53;2.15;;;;;;;7.45;51.56;99455.41;4466014;32;33917;-58
2022/01/06 10:30:51;;;;;;;6.18;2.33;;;;;;;7.53;51.02;99455.84;4465746;32;34130;-56
2022/01/06 10:33:21;;;;;;;7.05;2.05;;;;;;;7.32;51.19;99467.50;4465647;32;34672;-58
2022/01/06 10:35:49;;;;;;;8.50;2.25;;;;;;;7.41;51.40;99459.13;4472531;32;33110;-58
2022/01/06 10:38:26;;;;;;;;;;;;;;;7.59;51.41;99467.78;4466404;32;33371;-58
2022/01/06 10:40:53;;;;;;;8.77;2.00;;;;;;;7.55;50.61;99459.22;4465308;32;33950;-59
2022/01/06 10:43:33;;;;;;;9.13;2.25;;;;;;;7.58;51.06;99477.47;4474865;32;33711;-59
2022/01/06 10:46:04;;;;;;;6.95;2.35;;;;;;;7.60;51.37;99467.72;4481149;32;33552;-59
2022/01/06 10:48:32;;;;;;;6.57;2.20;;;;;;;7.71;50.81;99475.00;4469812;32;33987;-58
2022/01/06 10:51:01;;;;;;;6.28;2.45;;;;;;;7.68;50.94;99478.66;4472807;32;35292;-58
2022/01/06 10:53:28;;;;;;;9.77;2.42;;;;;;;8.17;50.26;99474.22;4483225;31;34117;-58
2022/01/06 10:55:56;;;;;;;5.62;2.35;;;;;;;7.95;50.01;99474.56;4464008;32;34089;-58
2022/01/06 10:58:27;;;;;;;5.85;2.28;;;;;;;7.82;57.68;99487.56;4463934;32;33843;-58
2022/01/06 11:01:02;;;;;;;6.53;2.12;;;;;;;7.71;50.77;99477.63;4464628;32;33657;-58
2022/01/06 11:03:36;;;;;;;6.00;2.22;;;;;;;7.79;50.83;99487.72;4480137;31;34532;-58
2022/01/06 11:06:05;;;;;;;7.45;2.50;;;;;;;7.80;51.04;99478.91;4479850;32;33913;-58
2022/01/06 11:08:37;;;;;;;7.60;2.30;;;;;;;7.83;50.63;99484.00;4465354;32;33919;-59
2022/01/06 11:13:41;;;;;;;8.52;2.50;;;;;;;7.65;50.89;99483.22;4465264;32;34475;-58
2022/01/06 11:16:12;;;;;;;8.43;2.75;;;;;;;7.74;50.89;99492.41;4465180;32;33056;-59
2022/01/06 11:18:42;;;;;;;6.68;2.33;;;;;;;7.91;50.50;99502.84;4464762;32;33676;-58
2022/01/06 11:21:13;;;;;;;6.95;2.58;;;;;;;7.62;51.40;99499.19;4469534;31;35107;-58
2022/01/06 11:23:40;;;;;;;5.57;2.25;;;;;;;7.84;51.44;99499.69;4481190;31;34130;-59
2022/01/06 11:26:15;;;;;;;6.70;2.62;;;;;;;7.78;51.87;99497.41;4475079;31;33208;-58
2022/01/06 11:28:58;;;;;;;9.32;3.28;;;;;;;7.75;50.78;99508.06;4480495;31;33895;-58
2022/01/06 11:31:28;;;;;;;7.35;2.70;;;;;;;7.88;51.07;99503.84;4477277;32;34007;-58
2022/01/06 11:33:56;;;;;;;9.00;2.62;;;;;;;7.80;51.31;99505.22;4466921;32;33691;-59
2022/01/06 11:36:31;;;;;;;9.18;3.28;;;;;;;7.80;51.94;99489.44;4466122;32;33264;-58
2022/01/06 11:39:02;;;;;;;14.48;5.85;;;;;;;7.81;51.36;99501.62;4465406;32;33484;-58
2022/01/06 11:41:38;;;;;;;19.62;9.45;;;;;;;7.88;51.08;99509.09;4464795;32;33842;-58
2022/01/06 11:44:27;;;;;;;7.40;2.40;;;;;;;7.75;52.05;99501.97;4469812;31;33848;-59
2022/01/06 11:46:59;;;;;;;7.22;2.55;;;;;;;7.75;51.54;99504.59;4478104;32;33638;-58
2022/01/06 11:49:42;;;;;;;8.50;2.83;;;;;;;7.42;52.48;99505.47;4480927;32;34045;-58
2022/01/06 11:52:10;;;;;;;7.18;2.83;;;;;;;7.59;51.87;99509.84;4480584;32;34051;-58
2022/01/06 11:54:54;;;;;;;8.00;2.70;;;;;;;7.44;52.24;99509.75;4471817;32;33835;-58
2022/01/06 11:57:40;;;;;;;8.30;2.92;;;;;;;7.58;50.75;99508.13;4468073;32;33255;-58
2022/01/06 12:00:25;;;;;;;7.53;2.80;;;;;;;7.60;51.02;99506.25;4480036;32;33330;-58
2022/01/06 12:03:00;;;;;;;7.60;2.90;;;;;;;7.78;50.77;99507.91;4464308;32;34130;-58